sensor_id;sensor_type;location;lat;lon;timestamp;pressure;altitude;pressure_sealevel;temperature;humidity
82621;BME280;72291;55.002;-1.592;2024-02-15T00:01:37;99895.42;;;11.01;61.55
82621;BME280;72291;55.002;-1.592;2024-02-15T00:04:02;99895.34;;;9.84;64.52
82621;BME280;72291;55.002;-1.592;2024-02-15T00:06:27;99889.09;;;10.90;62.40
82621;BME280;72291;55.002;-1.592;2024-02-15T00:08:52;99889.26;;;10.62;62.78
82621;BME280;72291;55.002;-1.592;2024-02-15T00:11:19;99884.33;;;10.81;61.79
82621;BME280;72291;55.002;-1.592;2024-02-15T00:13:43;99880.59;;;11.83;59.82
82621;BME280;72291;55.002;-1.592;2024-02-15T00:16:08;99878.80;;;11.65;59.01
82621;BME280;72291;55.002;-1.592;2024-02-15T00:18:33;99879.98;;;11.58;59.57
82621;BME280;72291;55.002;-1.592;2024-02-15T00:20:59;99878.55;;;11.89;59.02
82621;BME280;72291;55.002;-1.592;2024-02-15T00:23:24;99880.45;;;11.87;58.88
82621;BME280;72291;55.002;-1.592;2024-02-15T00:25:49;99874.10;;;12.90;56.61
82621;BME280;72291;55.002;-1.592;2024-02-15T00:28:14;99874.69;;;12.48;57.51
82621;BME280;72291;55.002;-1.592;2024-02-15T00:30:40;99880.13;;;12.08;58.68
82621;BME280;72291;55.002;-1.592;2024-02-15T00:33:04;99879.19;;;11.72;59.89
82621;BME280;72291;55.002;-1.592;2024-02-15T00:35:30;99877.12;;;11.33;60.17
82621;BME280;72291;55.002;-1.592;2024-02-15T00:37:55;99864.70;;;11.65;59.78
82621;BME280;72291;55.002;-1.592;2024-02-15T00:40:20;99853.85;;;11.46;60.90
82621;BME280;72291;55.002;-1.592;2024-02-15T00:42:46;99854.81;;;11.53;60.74
82621;BME280;72291;55.002;-1.592;2024-02-15T00:45:11;99853.30;;;11.18;62.24
82621;BME280;72291;55.002;-1.592;2024-02-15T00:47:37;99848.22;;;10.96;62.36
82621;BME280;72291;55.002;-1.592;2024-02-15T00:50:01;99845.74;;;10.39;63.60
82621;BME280;72291;55.002;-1.592;2024-02-15T00:52:26;99840.91;;;10.26;64.08
82621;BME280;72291;55.002;-1.592;2024-02-15T00:54:51;99840.31;;;10.02;65.73
82621;BME280;72291;55.002;-1.592;2024-02-15T00:57:16;99838.28;;;11.10;63.01
82621;BME280;72291;55.002;-1.592;2024-02-15T00:59:42;99836.56;;;11.09;63.03
82621;BME280;72291;55.002;-1.592;2024-02-15T01:02:06;99832.19;;;10.78;62.93
82621;BME280;72291;55.002;-1.592;2024-02-15T01:04:32;99830.10;;;11.70;60.52
82621;BME280;72291;55.002;-1.592;2024-02-15T01:06:57;99830.42;;;11.21;61.78
82621;BME280;72291;55.002;-1.592;2024-02-15T01:09:23;99824.30;;;11.69;60.46
82621;BME280;72291;55.002;-1.592;2024-02-15T01:11:50;99824.86;;;11.92;60.52
82621;BME280;72291;55.002;-1.592;2024-02-15T01:14:14;99818.47;;;11.93;60.49
82621;BME280;72291;55.002;-1.592;2024-02-15T01:16:39;99820.54;;;12.01;60.10
82621;BME280;72291;55.002;-1.592;2024-02-15T01:19:04;99815.59;;;11.67;60.25
82621;BME280;72291;55.002;-1.592;2024-02-15T01:21:30;99816.52;;;10.61;62.88
82621;BME280;72291;55.002;-1.592;2024-02-15T01:23:55;99815.91;;;11.73;60.57
82621;BME280;72291;55.002;-1.592;2024-02-15T01:26:21;99812.31;;;11.50;60.12
82621;BME280;72291;55.002;-1.592;2024-02-15T01:28:46;99811.77;;;11.75;60.01
82621;BME280;72291;55.002;-1.592;2024-02-15T01:31:12;99807.22;;;12.13;59.26
82621;BME280;72291;55.002;-1.592;2024-02-15T01:33:37;99808.54;;;11.72;60.49
82621;BME280;72291;55.002;-1.592;2024-02-15T01:36:04;99811.16;;;11.52;61.23
82621;BME280;72291;55.002;-1.592;2024-02-15T01:38:28;99804.77;;;11.25;61.59
82621;BME280;72291;55.002;-1.592;2024-02-15T01:40:53;99802.39;;;11.27;61.38
82621;BME280;72291;55.002;-1.592;2024-02-15T01:43:18;99795.35;;;11.76;61.24
82621;BME280;72291;55.002;-1.592;2024-02-15T01:45:52;99793.20;;;10.19;64.90
82621;BME280;72291;55.002;-1.592;2024-02-15T01:48:09;99783.15;;;11.58;61.41
82621;BME280;72291;55.002;-1.592;2024-02-15T01:50:34;99781.49;;;11.21;61.69
82621;BME280;72291;55.002;-1.592;2024-02-15T01:53:01;99781.89;;;11.42;61.90
82621;BME280;72291;55.002;-1.592;2024-02-15T01:55:25;99777.42;;;11.21;62.24
82621;BME280;72291;55.002;-1.592;2024-02-15T01:57:51;99769.32;;;11.44;61.10
82621;BME280;72291;55.002;-1.592;2024-02-15T02:00:18;99769.45;;;11.86;60.17
82621;BME280;72291;55.002;-1.592;2024-02-15T02:02:42;99774.07;;;11.66;60.84
82621;BME280;72291;55.002;-1.592;2024-02-15T02:05:06;99766.65;;;12.35;58.83
82621;BME280;72291;55.002;-1.592;2024-02-15T02:07:31;99765.14;;;11.99;59.23
82621;BME280;72291;55.002;-1.592;2024-02-15T02:09:59;99770.31;;;11.57;60.57
82621;BME280;72291;55.002;-1.592;2024-02-15T02:12:23;99763.33;;;11.98;59.85
82621;BME280;72291;55.002;-1.592;2024-02-15T02:14:48;99749.96;;;12.13;59.30
82621;BME280;72291;55.002;-1.592;2024-02-15T02:17:14;99755.40;;;9.70;65.24
82621;BME280;72291;55.002;-1.592;2024-02-15T02:19:39;99754.13;;;10.53;65.15
82621;BME280;72291;55.002;-1.592;2024-02-15T02:22:06;99754.00;;;10.55;64.23
82621;BME280;72291;55.002;-1.592;2024-02-15T02:24:30;99743.53;;;12.14;60.82
82621;BME280;72291;55.002;-1.592;2024-02-15T02:26:55;99739.52;;;12.00;60.50
82621;BME280;72291;55.002;-1.592;2024-02-15T02:29:20;99743.50;;;10.91;63.30
82621;BME280;72291;55.002;-1.592;2024-02-15T02:31:46;99741.82;;;9.88;67.02
82621;BME280;72291;55.002;-1.592;2024-02-15T02:34:12;99738.92;;;10.00;67.26
82621;BME280;72291;55.002;-1.592;2024-02-15T02:36:38;99733.12;;;10.75;64.68
82621;BME280;72291;55.002;-1.592;2024-02-15T02:39:02;99729.45;;;11.23;64.81
82621;BME280;72291;55.002;-1.592;2024-02-15T02:41:28;99734.66;;;10.02;67.36
82621;BME280;72291;55.002;-1.592;2024-02-15T02:43:53;99726.89;;;11.32;63.23
82621;BME280;72291;55.002;-1.592;2024-02-15T02:46:18;99726.27;;;10.69;64.57
82621;BME280;72291;55.002;-1.592;2024-02-15T02:48:44;99721.98;;;10.94;63.81
82621;BME280;72291;55.002;-1.592;2024-02-15T02:51:09;99725.52;;;9.23;69.64
82621;BME280;72291;55.002;-1.592;2024-02-15T02:53:35;99715.42;;;10.50;67.25
82621;BME280;72291;55.002;-1.592;2024-02-15T02:56:01;99712.37;;;8.77;73.97
82621;BME280;72291;55.002;-1.592;2024-02-15T02:58:26;99709.31;;;8.66;74.25
82621;BME280;72291;55.002;-1.592;2024-02-15T03:00:52;99707.42;;;8.88;74.33
82621;BME280;72291;55.002;-1.592;2024-02-15T03:03:16;99703.12;;;8.62;73.27
82621;BME280;72291;55.002;-1.592;2024-02-15T03:05:42;99701.73;;;9.24;73.11
82621;BME280;72291;55.002;-1.592;2024-02-15T03:08:08;99698.98;;;9.11;71.15
82621;BME280;72291;55.002;-1.592;2024-02-15T03:10:33;99699.77;;;9.18;72.44
82621;BME280;72291;55.002;-1.592;2024-02-15T03:12:59;99697.92;;;8.89;73.06
82621;BME280;72291;55.002;-1.592;2024-02-15T03:15:24;99688.10;;;9.31;72.46
82621;BME280;72291;55.002;-1.592;2024-02-15T03:17:50;99690.38;;;8.42;75.04
82621;BME280;72291;55.002;-1.592;2024-02-15T03:20:15;99682.42;;;9.31;73.95
82621;BME280;72291;55.002;-1.592;2024-02-15T03:22:42;99685.00;;;8.96;75.07
82621;BME280;72291;55.002;-1.592;2024-02-15T03:25:08;99682.33;;;8.52;76.74
82621;BME280;72291;55.002;-1.592;2024-02-15T03:27:32;99675.97;;;8.76;76.02
82621;BME280;72291;55.002;-1.592;2024-02-15T03:29:57;99676.56;;;8.82;75.61
82621;BME280;72291;55.002;-1.592;2024-02-15T03:32:23;99684.72;;;7.81;81.26
82621;BME280;72291;55.002;-1.592;2024-02-15T03:34:49;99683.69;;;7.28;82.82
82621;BME280;72291;55.002;-1.592;2024-02-15T03:37:15;99678.08;;;7.19;84.02
82621;BME280;72291;55.002;-1.592;2024-02-15T03:39:40;99666.69;;;8.41;78.33
82621;BME280;72291;55.002;-1.592;2024-02-15T03:42:05;99659.82;;;7.61;80.64
82621;BME280;72291;55.002;-1.592;2024-02-15T03:44:31;99656.47;;;8.10;81.16
82621;BME280;72291;55.002;-1.592;2024-02-15T03:46:56;99657.83;;;7.89;82.36
82621;BME280;72291;55.002;-1.592;2024-02-15T03:49:22;99651.14;;;7.99;80.64
82621;BME280;72291;55.002;-1.592;2024-02-15T03:51:48;99638.06;;;8.75;77.41
82621;BME280;72291;55.002;-1.592;2024-02-15T03:54:13;99641.92;;;7.70;81.63
82621;BME280;72291;55.002;-1.592;2024-02-15T03:56:46;99639.14;;;8.28;79.96
82621;BME280;72291;55.002;-1.592;2024-02-15T03:59:03;99640.24;;;7.84;79.84
82621;BME280;72291;55.002;-1.592;2024-02-15T04:01:30;99635.60;;;7.50;81.42
82621;BME280;72291;55.002;-1.592;2024-02-15T04:03:54;99634.42;;;7.51;83.25
82621;BME280;72291;55.002;-1.592;2024-02-15T04:06:19;99637.35;;;7.69;82.34
82621;BME280;72291;55.002;-1.592;2024-02-15T04:08:44;99638.12;;;7.59;82.57
82621;BME280;72291;55.002;-1.592;2024-02-15T04:11:10;99634.00;;;7.54;83.80
82621;BME280;72291;55.002;-1.592;2024-02-15T04:13:35;99630.65;;;7.20;84.16
82621;BME280;72291;55.002;-1.592;2024-02-15T04:16:00;99625.77;;;7.66;82.44
82621;BME280;72291;55.002;-1.592;2024-02-15T04:18:25;99628.12;;;8.04;82.16
82621;BME280;72291;55.002;-1.592;2024-02-15T04:20:50;99631.62;;;8.08;81.13
82621;BME280;72291;55.002;-1.592;2024-02-15T04:23:16;99629.07;;;8.59;78.58
82621;BME280;72291;55.002;-1.592;2024-02-15T04:25:42;99630.56;;;8.71;77.25
82621;BME280;72291;55.002;-1.592;2024-02-15T04:28:07;99631.39;;;8.36;78.28
82621;BME280;72291;55.002;-1.592;2024-02-15T04:30:33;99628.17;;;8.87;76.99
82621;BME280;72291;55.002;-1.592;2024-02-15T04:32:57;99632.94;;;7.80;80.03
82621;BME280;72291;55.002;-1.592;2024-02-15T04:35:23;99627.52;;;8.12;78.09
82621;BME280;72291;55.002;-1.592;2024-02-15T04:37:50;99625.13;;;8.72;76.64
82621;BME280;72291;55.002;-1.592;2024-02-15T04:40:14;99631.81;;;8.82;76.33
82621;BME280;72291;55.002;-1.592;2024-02-15T04:42:40;99634.73;;;9.18;74.18
82621;BME280;72291;55.002;-1.592;2024-02-15T04:45:06;99634.94;;;8.83;75.35
82621;BME280;72291;55.002;-1.592;2024-02-15T04:47:30;99637.40;;;9.36;74.48
82621;BME280;72291;55.002;-1.592;2024-02-15T04:49:55;99637.75;;;9.82;73.15
82621;BME280;72291;55.002;-1.592;2024-02-15T04:52:21;99637.91;;;9.67;73.24
82621;BME280;72291;55.002;-1.592;2024-02-15T04:54:46;99634.85;;;9.89;72.26
82621;BME280;72291;55.002;-1.592;2024-02-15T04:57:12;99641.29;;;9.12;73.34
82621;BME280;72291;55.002;-1.592;2024-02-15T04:59:38;99638.98;;;8.57;75.88
82621;BME280;72291;55.002;-1.592;2024-02-15T05:02:04;99636.55;;;8.60;76.07
82621;BME280;72291;55.002;-1.592;2024-02-15T05:04:28;99637.63;;;9.59;73.46
82621;BME280;72291;55.002;-1.592;2024-02-15T05:06:53;99634.72;;;9.84;71.01
82621;BME280;72291;55.002;-1.592;2024-02-15T05:09:19;99636.46;;;9.98;70.51
82621;BME280;72291;55.002;-1.592;2024-02-15T05:11:44;99631.12;;;10.08;68.96
82621;BME280;72291;55.002;-1.592;2024-02-15T05:14:11;99625.42;;;10.20;68.41
82621;BME280;72291;55.002;-1.592;2024-02-15T05:16:35;99622.95;;;10.03;69.50
82621;BME280;72291;55.002;-1.592;2024-02-15T05:19:01;99619.92;;;9.59;71.92
82621;BME280;72291;55.002;-1.592;2024-02-15T05:21:26;99619.18;;;9.62;70.32
82621;BME280;72291;55.002;-1.592;2024-02-15T05:23:52;99617.43;;;9.56;71.10
82621;BME280;72291;55.002;-1.592;2024-02-15T05:26:22;99611.76;;;10.09;69.04
82621;BME280;72291;55.002;-1.592;2024-02-15T05:28:42;99611.03;;;10.89;68.52
82621;BME280;72291;55.002;-1.592;2024-02-15T05:31:11;99608.51;;;10.82;67.92
82621;BME280;72291;55.002;-1.592;2024-02-15T05:33:32;99612.49;;;10.23;69.97
82621;BME280;72291;55.002;-1.592;2024-02-15T05:35:57;99606.48;;;10.61;67.22
82621;BME280;72291;55.002;-1.592;2024-02-15T05:38:22;99606.55;;;10.17;69.88
82621;BME280;72291;55.002;-1.592;2024-02-15T05:40:47;99603.89;;;9.72;71.31
82621;BME280;72291;55.002;-1.592;2024-02-15T05:43:13;99602.03;;;8.88;72.49
82621;BME280;72291;55.002;-1.592;2024-02-15T05:45:38;99602.32;;;9.07;74.65
82621;BME280;72291;55.002;-1.592;2024-02-15T05:48:05;99598.94;;;9.16;73.59
82621;BME280;72291;55.002;-1.592;2024-02-15T05:50:28;99592.06;;;9.13;74.08
82621;BME280;72291;55.002;-1.592;2024-02-15T05:52:54;99591.79;;;9.61;71.06
82621;BME280;72291;55.002;-1.592;2024-02-15T05:55:19;99587.35;;;9.67;71.90
82621;BME280;72291;55.002;-1.592;2024-02-15T05:57:45;99588.02;;;8.64;75.31
82621;BME280;72291;55.002;-1.592;2024-02-15T06:00:12;99582.14;;;8.87;75.10
82621;BME280;72291;55.002;-1.592;2024-02-15T06:02:36;99579.99;;;8.74;74.92
82621;BME280;72291;55.002;-1.592;2024-02-15T06:05:01;99578.88;;;8.07;78.28
82621;BME280;72291;55.002;-1.592;2024-02-15T06:07:26;99579.06;;;8.51;76.86
82621;BME280;72291;55.002;-1.592;2024-02-15T06:09:52;99577.58;;;9.51;73.78
82621;BME280;72291;55.002;-1.592;2024-02-15T06:12:17;99575.95;;;9.63;73.34
82621;BME280;72291;55.002;-1.592;2024-02-15T06:14:44;99577.09;;;9.07;75.12
82621;BME280;72291;55.002;-1.592;2024-02-15T06:17:08;99573.58;;;9.32;74.75
82621;BME280;72291;55.002;-1.592;2024-02-15T06:19:33;99571.19;;;9.33;73.61
82621;BME280;72291;55.002;-1.592;2024-02-15T06:21:58;99572.85;;;9.24;74.27
82621;BME280;72291;55.002;-1.592;2024-02-15T06:24:23;99569.99;;;9.02;74.94
82621;BME280;72291;55.002;-1.592;2024-02-15T06:26:49;99565.37;;;8.89;75.49
82621;BME280;72291;55.002;-1.592;2024-02-15T06:29:13;99560.96;;;9.07;75.81
82621;BME280;72291;55.002;-1.592;2024-02-15T06:31:39;99558.01;;;9.80;72.98
82621;BME280;72291;55.002;-1.592;2024-02-15T06:34:04;99561.35;;;9.79;71.49
82621;BME280;72291;55.002;-1.592;2024-02-15T06:36:29;99562.70;;;9.77;71.58
82621;BME280;72291;55.002;-1.592;2024-02-15T06:38:56;99560.50;;;10.13;70.94
82621;BME280;72291;55.002;-1.592;2024-02-15T06:41:30;99555.40;;;10.12;69.30
82621;BME280;72291;55.002;-1.592;2024-02-15T06:43:45;99548.60;;;10.64;67.40
82621;BME280;72291;55.002;-1.592;2024-02-15T06:46:10;99552.00;;;9.74;69.57
82621;BME280;72291;55.002;-1.592;2024-02-15T06:48:35;99547.00;;;9.84;69.56
82621;BME280;72291;55.002;-1.592;2024-02-15T06:51:02;99542.06;;;9.77;70.94
82621;BME280;72291;55.002;-1.592;2024-02-15T06:53:25;99543.18;;;9.54;73.51
82621;BME280;72291;55.002;-1.592;2024-02-15T06:55:51;99539.27;;;9.48;71.74
82621;BME280;72291;55.002;-1.592;2024-02-15T06:58:17;99544.45;;;9.17;73.21
82621;BME280;72291;55.002;-1.592;2024-02-15T07:00:41;99549.72;;;9.08;73.88
82621;BME280;72291;55.002;-1.592;2024-02-15T07:03:07;99550.93;;;8.92;75.25
82621;BME280;72291;55.002;-1.592;2024-02-15T07:07:57;99557.59;;;9.68;72.25
82621;BME280;72291;55.002;-1.592;2024-02-15T07:10:22;99562.82;;;9.63;73.62
82621;BME280;72291;55.002;-1.592;2024-02-15T07:12:47;99560.80;;;9.83;71.26
82621;BME280;72291;55.002;-1.592;2024-02-15T07:15:13;99560.79;;;10.30;70.28
82621;BME280;72291;55.002;-1.592;2024-02-15T07:17:37;99567.04;;;10.66;68.78
82621;BME280;72291;55.002;-1.592;2024-02-15T07:20:02;99572.59;;;10.69;68.34
82621;BME280;72291;55.002;-1.592;2024-02-15T07:22:27;99579.74;;;10.10;70.35
82621;BME280;72291;55.002;-1.592;2024-02-15T07:24:52;99576.34;;;10.70;69.27
82621;BME280;72291;55.002;-1.592;2024-02-15T07:27:17;99581.69;;;10.50;68.09
82621;BME280;72291;55.002;-1.592;2024-02-15T07:29:43;99580.85;;;10.68;68.82
82621;BME280;72291;55.002;-1.592;2024-02-15T07:32:07;99573.68;;;11.10;65.70
82621;BME280;72291;55.002;-1.592;2024-02-15T07:34:33;99583.99;;;10.17;71.04
82621;BME280;72291;55.002;-1.592;2024-02-15T07:36:58;99585.28;;;10.21;69.62
82621;BME280;72291;55.002;-1.592;2024-02-15T07:39:24;99587.72;;;9.85;70.66
82621;BME280;72291;55.002;-1.592;2024-02-15T07:41:48;99585.78;;;9.77;72.59
82621;BME280;72291;55.002;-1.592;2024-02-15T07:44:13;99582.68;;;10.05;71.30
82621;BME280;72291;55.002;-1.592;2024-02-15T07:46:38;99578.37;;;10.36;70.10
82621;BME280;72291;55.002;-1.592;2024-02-15T07:49:04;99581.31;;;9.99;70.84
82621;BME280;72291;55.002;-1.592;2024-02-15T07:51:29;99572.74;;;10.47;70.00
82621;BME280;72291;55.002;-1.592;2024-02-15T07:53:53;99567.22;;;10.93;68.18
82621;BME280;72291;55.002;-1.592;2024-02-15T07:56:19;99570.15;;;10.33;69.47
82621;BME280;72291;55.002;-1.592;2024-02-15T07:58:46;99565.57;;;10.52;69.67
82621;BME280;72291;55.002;-1.592;2024-02-15T08:01:09;99555.71;;;10.46;68.21
82621;BME280;72291;55.002;-1.592;2024-02-15T08:03:36;99561.58;;;9.98;69.19
82621;BME280;72291;55.002;-1.592;2024-02-15T08:06:00;99563.31;;;10.37;69.57
82621;BME280;72291;55.002;-1.592;2024-02-15T08:08:26;99565.58;;;9.66;71.78
82621;BME280;72291;55.002;-1.592;2024-02-15T08:10:51;99566.69;;;9.58;73.74
82621;BME280;72291;55.002;-1.592;2024-02-15T08:13:16;99562.53;;;9.41;75.78
82621;BME280;72291;55.002;-1.592;2024-02-15T08:15:43;99562.82;;;9.27;75.56
82621;BME280;72291;55.002;-1.592;2024-02-15T08:18:07;99556.65;;;9.13;75.59
82621;BME280;72291;55.002;-1.592;2024-02-15T08:20:32;99547.63;;;8.88;77.50
82621;BME280;72291;55.002;-1.592;2024-02-15T08:22:59;99541.18;;;8.96;77.36
82621;BME280;72291;55.002;-1.592;2024-02-15T08:25:23;99539.96;;;8.70;78.72
82621;BME280;72291;55.002;-1.592;2024-02-15T08:27:48;99545.70;;;8.68;77.88
82621;BME280;72291;55.002;-1.592;2024-02-15T08:30:14;99552.44;;;9.18;77.55
82621;BME280;72291;55.002;-1.592;2024-02-15T08:32:38;99546.92;;;8.50;79.27
82621;BME280;72291;55.002;-1.592;2024-02-15T08:35:05;99544.20;;;8.83;78.96
82621;BME280;72291;55.002;-1.592;2024-02-15T08:37:29;99537.96;;;8.75;79.01
82621;BME280;72291;55.002;-1.592;2024-02-15T08:39:55;99542.95;;;8.95;78.43
82621;BME280;72291;55.002;-1.592;2024-02-15T08:42:19;99539.64;;;8.98;78.87
82621;BME280;72291;55.002;-1.592;2024-02-15T08:44:44;99531.90;;;8.84;79.16
82621;BME280;72291;55.002;-1.592;2024-02-15T08:47:10;99527.10;;;8.82;79.18
82621;BME280;72291;55.002;-1.592;2024-02-15T08:49:35;99526.96;;;8.69;77.63
82621;BME280;72291;55.002;-1.592;2024-02-15T08:52:01;99509.70;;;9.73;74.17
82621;BME280;72291;55.002;-1.592;2024-02-15T08:54:26;99507.01;;;9.92;73.52
82621;BME280;72291;55.002;-1.592;2024-02-15T08:56:50;99510.53;;;10.05;71.50
82621;BME280;72291;55.002;-1.592;2024-02-15T08:59:16;99513.79;;;9.94;72.02
82621;BME280;72291;55.002;-1.592;2024-02-15T09:01:41;99511.11;;;10.32;71.18
82621;BME280;72291;55.002;-1.592;2024-02-15T09:04:07;99512.87;;;9.94;72.40
82621;BME280;72291;55.002;-1.592;2024-02-15T09:06:31;99517.10;;;10.20;70.91
82621;BME280;72291;55.002;-1.592;2024-02-15T09:08:57;99513.41;;;10.17;70.02
82621;BME280;72291;55.002;-1.592;2024-02-15T09:11:22;99509.77;;;9.96;72.62
82621;BME280;72291;55.002;-1.592;2024-02-15T09:13:47;99504.28;;;10.27;71.38
82621;BME280;72291;55.002;-1.592;2024-02-15T09:16:13;99496.50;;;10.19;71.88
82621;BME280;72291;55.002;-1.592;2024-02-15T09:18:37;99483.43;;;9.65;72.53
82621;BME280;72291;55.002;-1.592;2024-02-15T09:21:02;99478.51;;;10.03;73.89
82621;BME280;72291;55.002;-1.592;2024-02-15T09:23:27;99476.30;;;10.08;73.27
82621;BME280;72291;55.002;-1.592;2024-02-15T09:25:52;99467.45;;;9.77;75.11
82621;BME280;72291;55.002;-1.592;2024-02-15T09:28:19;99465.69;;;9.16;76.54
82621;BME280;72291;55.002;-1.592;2024-02-15T09:30:43;99459.73;;;9.11;77.19
82621;BME280;72291;55.002;-1.592;2024-02-15T09:33:08;99461.68;;;9.89;77.07
82621;BME280;72291;55.002;-1.592;2024-02-15T09:35:34;99459.85;;;8.74;80.32
82621;BME280;72291;55.002;-1.592;2024-02-15T09:37:58;99468.43;;;8.78;78.97
82621;BME280;72291;55.002;-1.592;2024-02-15T09:40:25;99466.35;;;8.67;81.06
82621;BME280;72291;55.002;-1.592;2024-02-15T09:42:49;99471.09;;;8.51;82.12
82621;BME280;72291;55.002;-1.592;2024-02-15T09:45:15;99474.26;;;8.37;82.29
82621;BME280;72291;55.002;-1.592;2024-02-15T09:47:40;99473.57;;;9.00;80.83
82621;BME280;72291;55.002;-1.592;2024-02-15T09:50:06;99467.95;;;9.09;80.31
82621;BME280;72291;55.002;-1.592;2024-02-15T09:52:31;99462.71;;;9.15;78.27
82621;BME280;72291;55.002;-1.592;2024-02-15T09:54:55;99458.81;;;9.33;77.90
82621;BME280;72291;55.002;-1.592;2024-02-15T09:57:20;99444.72;;;10.32;75.63
82621;BME280;72291;55.002;-1.592;2024-02-15T09:59:45;99453.06;;;10.08;76.25
82621;BME280;72291;55.002;-1.592;2024-02-15T10:02:11;99458.51;;;10.08;75.09
82621;BME280;72291;55.002;-1.592;2024-02-15T10:04:36;99449.54;;;10.23;74.08
82621;BME280;72291;55.002;-1.592;2024-02-15T10:07:01;99451.19;;;10.85;72.13
82621;BME280;72291;55.002;-1.592;2024-02-15T10:09:28;99445.31;;;10.46;73.39
82621;BME280;72291;55.002;-1.592;2024-02-15T10:11:54;99458.52;;;9.37;77.91
82621;BME280;72291;55.002;-1.592;2024-02-15T10:14:18;99463.54;;;9.10;80.31
82621;BME280;72291;55.002;-1.592;2024-02-15T10:16:44;99461.38;;;9.24;79.07
82621;BME280;72291;55.002;-1.592;2024-02-15T10:19:09;99457.35;;;9.64;77.28
82621;BME280;72291;55.002;-1.592;2024-02-15T10:21:35;99445.70;;;9.99;75.00
82621;BME280;72291;55.002;-1.592;2024-02-15T10:24:06;99443.96;;;9.69;76.07
82621;BME280;72291;55.002;-1.592;2024-02-15T10:26:25;99452.66;;;9.09;82.54
82621;BME280;72291;55.002;-1.592;2024-02-15T10:29:04;99442.51;;;9.44;78.77
82621;BME280;72291;55.002;-1.592;2024-02-15T10:31:17;99438.62;;;9.96;76.16
82621;BME280;72291;55.002;-1.592;2024-02-15T10:33:42;99438.66;;;9.65;78.80
82621;BME280;72291;55.002;-1.592;2024-02-15T10:36:13;99436.50;;;9.77;78.33
82621;BME280;72291;55.002;-1.592;2024-02-15T10:38:33;99438.31;;;9.15;80.36
82621;BME280;72291;55.002;-1.592;2024-02-15T10:41:04;99434.21;;;9.77;78.74
82621;BME280;72291;55.002;-1.592;2024-02-15T10:43:24;99434.99;;;9.31;80.23
82621;BME280;72291;55.002;-1.592;2024-02-15T10:45:50;99424.70;;;9.94;78.50
82621;BME280;72291;55.002;-1.592;2024-02-15T10:48:15;99432.30;;;9.22;80.09
82621;BME280;72291;55.002;-1.592;2024-02-15T10:50:41;99428.05;;;9.29;81.21
82621;BME280;72291;55.002;-1.592;2024-02-15T10:53:13;99424.25;;;9.37;79.76
82621;BME280;72291;55.002;-1.592;2024-02-15T10:55:37;99423.94;;;9.61;80.53
82621;BME280;72291;55.002;-1.592;2024-02-15T10:58:01;99421.54;;;9.21;81.50
82621;BME280;72291;55.002;-1.592;2024-02-15T11:00:22;99428.22;;;9.18;81.75
82621;BME280;72291;55.002;-1.592;2024-02-15T11:03:01;99423.91;;;9.62;79.33
82621;BME280;72291;55.002;-1.592;2024-02-15T11:05:14;99419.16;;;9.69;79.10
82621;BME280;72291;55.002;-1.592;2024-02-15T11:07:38;99415.21;;;9.54;79.58
82621;BME280;72291;55.002;-1.592;2024-02-15T11:10:05;99424.23;;;9.79;79.48
82621;BME280;72291;55.002;-1.592;2024-02-15T11:12:29;99421.08;;;9.36;81.21
82621;BME280;72291;55.002;-1.592;2024-02-15T11:14:54;99415.15;;;9.69;80.58
82621;BME280;72291;55.002;-1.592;2024-02-15T11:19:45;99413.83;;;9.63;79.82
82621;BME280;72291;55.002;-1.592;2024-02-15T11:22:10;99414.24;;;9.59;80.08
82621;BME280;72291;55.002;-1.592;2024-02-15T11:24:35;99414.85;;;9.20;82.30
82621;BME280;72291;55.002;-1.592;2024-02-15T11:27:00;99412.45;;;9.47;81.03
82621;BME280;72291;55.002;-1.592;2024-02-15T11:31:54;99403.50;;;10.31;75.91
82621;BME280;72291;55.002;-1.592;2024-02-15T11:36:40;99391.82;;;10.06;77.43
82621;BME280;72291;55.002;-1.592;2024-02-15T11:41:32;99397.18;;;10.50;76.02
82621;BME280;72291;55.002;-1.592;2024-02-15T11:43:57;99390.15;;;10.07;75.44
82621;BME280;72291;55.002;-1.592;2024-02-15T11:46:22;99391.22;;;10.49;75.59
82621;BME280;72291;55.002;-1.592;2024-02-15T11:48:50;99388.22;;;10.62;75.32
82621;BME280;72291;55.002;-1.592;2024-02-15T11:51:26;99378.96;;;10.79;74.99
82621;BME280;72291;55.002;-1.592;2024-02-15T11:56:04;99373.41;;;10.28;76.06
82621;BME280;72291;55.002;-1.592;2024-02-15T11:58:29;99375.73;;;10.73;76.36
82621;BME280;72291;55.002;-1.592;2024-02-15T12:00:59;99376.98;;;10.49;75.07
82621;BME280;72291;55.002;-1.592;2024-02-15T12:03:20;99371.80;;;11.24;73.48
82621;BME280;72291;55.002;-1.592;2024-02-15T12:05:49;99365.33;;;11.05;73.85
82621;BME280;72291;55.002;-1.592;2024-02-15T12:08:11;99364.78;;;11.18;72.38
82621;BME280;72291;55.002;-1.592;2024-02-15T12:10:36;99356.60;;;12.26;68.86
82621;BME280;72291;55.002;-1.592;2024-02-15T12:13:00;99359.26;;;11.83;71.14
82621;BME280;72291;55.002;-1.592;2024-02-15T12:15:25;99353.86;;;12.40;68.59
82621;BME280;72291;55.002;-1.592;2024-02-15T12:17:51;99345.79;;;12.14;69.49
82621;BME280;72291;55.002;-1.592;2024-02-15T12:20:16;99343.73;;;11.26;72.13
82621;BME280;72291;55.002;-1.592;2024-02-15T12:22:46;99341.74;;;10.74;74.98
82621;BME280;72291;55.002;-1.592;2024-02-15T12:25:07;99338.86;;;10.63;74.71
82621;BME280;72291;55.002;-1.592;2024-02-15T12:27:32;99337.21;;;11.05;74.84
82621;BME280;72291;55.002;-1.592;2024-02-15T12:30:02;99339.38;;;11.83;72.18
82621;BME280;72291;55.002;-1.592;2024-02-15T12:32:23;99334.84;;;11.26;74.91
82621;BME280;72291;55.002;-1.592;2024-02-15T12:34:47;99332.50;;;10.83;74.15
82621;BME280;72291;55.002;-1.592;2024-02-15T12:37:12;99338.29;;;11.69;71.39
82621;BME280;72291;55.002;-1.592;2024-02-15T12:39:37;99340.48;;;11.24;72.89
82621;BME280;72291;55.002;-1.592;2024-02-15T12:42:06;99337.71;;;11.60;72.28
82621;BME280;72291;55.002;-1.592;2024-02-15T12:44:29;99338.00;;;11.46;72.43
82621;BME280;72291;55.002;-1.592;2024-02-15T12:46:55;99333.99;;;11.84;71.44
82621;BME280;72291;55.002;-1.592;2024-02-15T12:51:51;99324.37;;;12.23;69.65
82621;BME280;72291;55.002;-1.592;2024-02-15T12:54:11;99317.58;;;12.06;70.24
82621;BME280;72291;55.002;-1.592;2024-02-15T12:56:35;99319.09;;;12.26;71.06
82621;BME280;72291;55.002;-1.592;2024-02-15T12:59:00;99314.43;;;11.11;73.68
82621;BME280;72291;55.002;-1.592;2024-02-15T13:01:25;99318.16;;;11.16;72.85